Time;durP1;ratioP1;P1;durP2;ratioP2;P2;SDS_P1;SDS_P2;PMS_P1;PMS_P2;Temp;Humidity;BMP_temperature;BMP_pressure;BME280_temperature;BME280_humidity;BME280_pressure;Samples;Min_cycle;Max_cycle;Signal;HPM_P1;HPM_P2
2022/05/22 00:01:15;;;;;;;16.50;10.30;;;21.90;83.90;;;;;;5079804;28;20527;-69
2022/05/22 00:03:43;;;;;;;14.60;10.07;;;22.00;84.00;;;;;;5089305;28;20223;-69
2022/05/22 00:06:10;;;;;;;10.80;9.70;;;21.90;83.90;;;;;;5087524;28;20201;-69
2022/05/22 00:08:37;;;;;;;10.80;9.50;;;21.90;83.60;;;;;;5070547;28;20303;-69
2022/05/22 00:11:04;;;;;;;12.53;9.47;;;21.90;83.50;;;;;;5071037;28;20229;-69
2022/05/22 00:13:31;;;;;;;12.60;9.23;;;21.90;83.40;;;;;;5103590;28;20273;-69
2022/05/22 00:18:43;;;;;;;13.43;10.33;;;21.90;83.40;;;;;;5062773;28;20221;-69
2022/05/22 00:21:10;;;;;;;14.47;10.30;;;21.80;83.60;;;;;;5078289;28;20293;-69
2022/05/22 00:23:37;;;;;;;10.87;9.17;;;21.80;83.70;;;;;;5069102;28;20263;-69
2022/05/22 00:26:04;;;;;;;10.90;9.13;;;21.80;84.00;;;;;;5088811;28;20546;-69
2022/05/22 00:28:31;;;;;;;12.10;9.40;;;21.80;84.10;;;;;;5079443;28;20288;-69
2022/05/22 00:30:58;;;;;;;11.83;9.97;;;21.80;83.80;;;;;;5058388;28;20539;-69
2022/05/22 00:33:29;;;;;;;13.50;10.10;;;21.70;83.70;;;;;;5074628;28;20304;-69
2022/05/22 00:35:56;;;;;;;13.63;10.53;;;21.70;84.20;;;;;;5074212;28;20210;-69
2022/05/22 00:38:23;;;;;;;14.93;10.60;;;21.70;84.20;;;;;;5072924;28;20221;-69
2022/05/22 00:40:50;;;;;;;16.10;11.07;;;21.70;84.20;;;;;;5072836;28;20220;-69
2022/05/22 00:43:45;;;;;;;10.67;9.57;;;21.70;84.40;;;;;;5083435;28;20220;-69
2022/05/22 00:46:14;;;;;;;18.33;10.53;;;21.60;84.70;;;;;;5087537;28;20221;-69
2022/05/22 00:48:44;;;;;;;11.70;10.50;;;21.60;84.90;;;;;;5065466;28;20270;-69
2022/05/22 00:51:37;;;;;;;13.67;11.13;;;21.60;85.10;;;;;;5075385;28;20221;-69
2022/05/22 00:54:07;;;;;;;13.80;11.17;;;21.50;85.40;;;;;;5056106;28;20209;-69
2022/05/22 00:56:39;;;;;;;14.43;10.00;;;21.50;85.40;;;;;;5076910;28;20202;-69
2022/05/22 00:59:10;;;;;;;17.70;10.70;;;21.50;85.40;;;;;;5086854;28;20635;-70
2022/05/22 01:01:40;;;;;;;11.17;10.03;;;21.50;85.40;;;;;;5077627;28;20267;-69
2022/05/22 01:04:15;;;;;;;12.43;11.23;;;21.50;85.40;;;;;;5102309;28;20307;-69
2022/05/22 01:06:51;;;;;;;11.60;10.47;;;21.40;85.50;;;;;;5077154;28;20241;-69
2022/05/22 01:09:19;;;;;;;26.93;12.97;;;21.40;85.60;;;;;;5069782;28;20566;-69
2022/05/22 01:11:49;;;;;;;17.37;11.30;;;21.40;85.60;;;;;;5085626;28;20769;-69
2022/05/22 01:14:22;;;;;;;17.40;11.73;;;21.40;85.60;;;;;;5077002;28;20213;-69
2022/05/22 01:17:01;;;;;;;14.47;11.17;;;21.40;85.40;;;;;;5073978;28;20227;-69
2022/05/22 01:19:28;;;;;;;13.90;9.60;;;21.30;85.60;;;;;;5086606;28;20247;-69
2022/05/22 01:22:02;;;;;;;12.03;9.27;;;21.30;85.70;;;;;;5089423;28;20202;-69
2022/05/22 01:24:29;;;;;;;15.73;10.80;;;21.30;85.50;;;;;;5095235;28;20335;-69
2022/05/22 01:27:01;;;;;;;17.33;10.83;;;21.20;85.30;;;;;;5075068;28;20212;-69
2022/05/22 01:29:40;;;;;;;14.00;10.87;;;21.20;85.60;;;;;;5090503;28;20220;-69
2022/05/22 01:32:07;;;;;;;12.03;10.00;;;21.20;86.10;;;;;;5092749;28;20704;-69
2022/05/22 01:34:35;;;;;;;14.17;10.93;;;21.10;86.30;;;;;;5099924;28;20208;-69
2022/05/22 01:37:04;;;;;;;15.37;9.87;;;21.10;86.30;;;;;;5090513;28;20209;-69
2022/05/22 01:39:32;;;;;;;16.90;10.20;;;21.10;86.30;;;;;;5089241;28;20211;-69
2022/05/22 01:42:00;;;;;;;15.13;11.67;;;21.10;86.30;;;;;;5079088;28;20250;-69
2022/05/22 01:44:27;;;;;;;14.47;11.33;;;21.10;86.20;;;;;;5076673;28;20594;-69
2022/05/22 01:46:55;;;;;;;14.03;10.60;;;21.00;86.40;;;;;;5057668;28;20201;-70
2022/05/22 01:49:25;;;;;;;15.10;10.63;;;21.00;86.40;;;;;;5082527;28;20240;-69
2022/05/22 01:51:52;;;;;;;17.23;11.03;;;21.00;86.50;;;;;;5074929;28;20197;-69
2022/05/22 01:54:19;;;;;;;17.90;10.53;;;21.00;86.40;;;;;;5066360;28;20217;-69
2022/05/22 01:56:46;;;;;;;18.90;10.70;;;20.90;86.30;;;;;;5076156;28;20640;-69
2022/05/22 01:59:14;;;;;;;18.87;10.83;;;20.90;86.20;;;;;;5067584;28;20240;-69
2022/05/22 02:01:49;;;;;;;17.30;9.57;;;20.90;86.20;;;;;;5083917;28;20216;-69
2022/05/22 02:04:17;;;;;;;14.47;9.03;;;20.90;85.90;;;;;;5085091;28;20212;-69
2022/05/22 02:09:31;;;;;;;14.40;9.50;;;20.90;85.60;;;;;;5099514;28;20231;-69
2022/05/22 02:11:58;;;;;;;16.47;9.53;;;20.80;85.30;;;;;;5094223;28;20217;-69
2022/05/22 02:14:27;;;;;;;14.80;9.73;;;20.80;85.20;;;;;;5082857;28;20681;-69
2022/05/22 02:17:09;;;;;;;18.97;11.17;;;20.80;85.30;;;;;;5062854;28;20238;-69
2022/05/22 02:19:48;;;;;;;15.53;9.77;;;20.70;85.40;;;;;;5074204;28;20212;-69
2022/05/22 02:22:29;;;;;;;17.03;10.00;;;20.70;85.60;;;;;;5075137;28;20663;-69
2022/05/22 02:24:56;;;;;;;14.33;10.17;;;20.70;85.80;;;;;;5088317;28;20629;-69
2022/05/22 02:27:23;;;;;;;15.30;10.67;;;20.70;86.00;;;;;;5059693;28;20221;-69
2022/05/22 02:29:50;;;;;;;13.70;9.90;;;20.70;86.30;;;;;;5086964;28;20553;-69
2022/05/22 02:32:17;;;;;;;15.07;10.47;;;20.70;86.30;;;;;;5092462;28;20197;-69
2022/05/22 02:34:44;;;;;;;21.87;11.40;;;20.70;86.40;;;;;;5066592;28;20643;-69
2022/05/22 02:37:12;;;;;;;19.50;11.53;;;20.70;86.40;;;;;;5060052;28;20228;-70
2022/05/22 02:39:39;;;;;;;16.97;11.47;;;20.60;86.30;;;;;;5067084;28;20591;-69
2022/05/22 02:42:26;;;;;;;13.83;11.57;;;20.60;86.30;;;;;;5078446;28;20664;-69
2022/05/22 02:44:54;;;;;;;17.83;11.40;;;20.70;86.50;;;;;;5101410;28;20278;-69
2022/05/22 02:47:22;;;;;;;14.00;11.03;;;20.60;86.70;;;;;;5091922;28;20245;-69
2022/05/22 02:49:49;;;;;;;18.67;12.00;;;20.60;86.90;;;;;;5074932;28;20318;-69
2022/05/22 02:52:16;;;;;;;17.50;11.30;;;20.60;87.00;;;;;;5075097;28;20212;-69
2022/05/22 02:54:43;;;;;;;13.93;10.60;;;20.60;87.10;;;;;;5075530;28;20212;-70
2022/05/22 02:57:12;;;;;;;16.27;11.63;;;20.60;87.20;;;;;;5059892;28;20220;-69
2022/05/22 02:59:50;;;;;;;13.07;11.47;;;20.60;87.20;;;;;;5066373;28;20223;-69
2022/05/22 03:02:30;;;;;;;13.23;11.87;;;20.60;87.20;;;;;;5075586;28;20222;-69
2022/05/22 03:04:57;;;;;;;17.27;11.47;;;20.60;87.10;;;;;;5069204;28;20247;-69
2022/05/22 03:07:27;;;;;;;13.50;11.57;;;20.60;87.20;;;;;;5073861;28;20554;-69
2022/05/22 03:09:56;;;;;;;14.23;12.07;;;20.50;87.20;;;;;;5068205;28;20218;-69
2022/05/22 03:12:28;;;;;;;14.90;12.17;;;20.50;87.30;;;;;;5077334;28;20231;-69
2022/05/22 03:14:59;;;;;;;16.60;14.13;;;20.50;87.50;;;;;;5057037;28;20214;-69
2022/05/22 03:17:28;;;;;;;19.77;15.83;;;20.60;87.70;;;;;;5075612;28;20608;-69
2022/05/22 03:19:58;;;;;;;17.47;14.93;;;20.60;87.90;;;;;;5081233;28;20210;-69
2022/05/22 03:22:25;;;;;;;21.60;15.53;;;20.60;88.00;;;;;;5074133;28;20258;-69
2022/05/22 03:24:52;;;;;;;21.70;15.63;;;20.70;88.00;;;;;;5071206;28;20248;-69
2022/05/22 03:27:20;;;;;;;21.27;17.53;;;20.70;87.90;;;;;;5086680;28;20299;-69
2022/05/22 03:29:51;;;;;;;24.97;16.67;;;20.70;87.80;;;;;;5071802;28;20283;-69
2022/05/22 03:32:19;;;;;;;21.77;16.23;;;20.70;87.80;;;;;;5067313;28;20657;-69
2022/05/22 03:34:48;;;;;;;22.80;16.50;;;20.70;87.80;;;;;;5071471;28;20299;-69
2022/05/22 03:37:15;;;;;;;20.60;16.80;;;20.70;87.80;;;;;;5059454;28;20443;-69
2022/05/22 03:39:42;;;;;;;18.80;16.87;;;20.70;87.70;;;;;;5058713;28;20223;-70
2022/05/22 03:42:10;;;;;;;26.83;16.27;;;20.70;87.70;;;;;;5084444;28;20473;-69
2022/05/22 03:44:38;;;;;;;25.90;16.90;;;20.70;87.70;;;;;;5059362;28;20227;-69
2022/05/22 03:47:06;;;;;;;28.43;15.50;;;20.70;87.50;;;;;;5069686;28;20224;-69
2022/05/22 03:49:53;;;;;;;22.83;15.80;;;20.80;87.20;;;;;;5071366;28;20546;-70
2022/05/22 03:52:20;;;;;;;19.97;15.93;;;20.80;86.90;;;;;;5084902;28;20248;-70
2022/05/22 03:54:48;;;;;;;20.03;17.23;;;20.80;86.60;;;;;;5067740;28;20221;-70
2022/05/22 03:57:15;;;;;;;36.20;18.27;;;20.80;86.40;;;;;;5057968;28;20198;-69
2022/05/22 03:59:42;;;;;;;24.57;17.13;;;20.80;86.30;;;;;;5057991;28;20205;-69
2022/05/22 04:02:11;;;;;;;26.63;17.43;;;20.70;86.50;;;;;;5059938;28;20222;-69
2022/05/22 04:04:39;;;;;;;23.77;16.93;;;20.70;86.80;;;;;;5057663;28;20550;-69
2022/05/22 04:07:22;;;;;;;26.83;17.37;;;20.70;87.10;;;;;;5072753;28;20321;-69
2022/05/22 04:09:52;;;;;;;25.80;17.40;;;20.70;87.20;;;;;;5070267;28;20241;-69
2022/05/22 04:12:33;;;;;;;29.10;17.33;;;20.70;87.60;;;;;;5068559;28;20212;-69
2022/05/22 04:15:00;;;;;;;24.87;16.03;;;20.70;87.70;;;;;;5067330;28;20231;-70
2022/05/22 04:17:27;;;;;;;24.17;16.43;;;20.70;87.70;;;;;;5094160;28;20217;-70
2022/05/22 04:19:58;;;;;;;20.33;15.87;;;20.70;87.70;;;;;;5052426;28;20687;-70
2022/05/22 04:22:25;;;;;;;18.60;15.50;;;20.70;87.80;;;;;;5065422;28;20214;-69
2022/05/22 04:25:11;;;;;;;26.07;15.23;;;20.80;88.00;;;;;;5058804;28;20707;-70
2022/05/22 04:27:41;;;;;;;19.33;15.53;;;20.70;88.00;;;;;;5057674;28;20220;-69
2022/05/22 04:30:17;;;;;;;22.00;16.17;;;20.80;88.10;;;;;;5056490;28;20233;-69
2022/05/22 04:32:51;;;;;;;24.57;14.40;;;20.80;88.00;;;;;;5091365;28;20243;-69
2022/05/22 04:35:21;;;;;;;17.20;14.50;;;20.90;87.90;;;;;;5056641;28;20570;-69
2022/05/22 04:37:49;;;;;;;16.93;13.93;;;20.90;88.10;;;;;;5071834;28;20209;-69
2022/05/22 04:40:16;;;;;;;24.30;14.50;;;21.00;88.10;;;;;;5068629;28;20224;-70
2022/05/22 04:42:43;;;;;;;23.33;16.07;;;21.10;88.10;;;;;;5091705;28;20217;-70
2022/05/22 04:45:13;;;;;;;20.03;13.33;;;21.10;87.80;;;;;;5088872;28;20208;-70
2022/05/22 04:47:45;;;;;;;23.47;14.53;;;21.20;87.70;;;;;;5063233;28;20269;-70
2022/05/22 04:50:28;;;;;;;16.50;14.60;;;21.30;87.60;;;;;;5067531;28;20229;-70
2022/05/22 04:53:10;;;;;;;21.50;16.10;;;21.30;87.30;;;;;;5057949;28;20227;-70
2022/05/22 04:55:57;;;;;;;24.73;15.30;;;21.40;87.30;;;;;;5059223;28;20852;-70
2022/05/22 04:58:27;;;;;;;17.80;13.90;;;21.50;87.20;;;;;;5067677;28;20260;-70
2022/05/22 05:00:56;;;;;;;16.70;14.97;;;21.60;87.10;;;;;;5074352;28;20689;-69
2022/05/22 05:03:32;;;;;;;19.53;15.03;;;21.60;86.80;;;;;;5052008;28;20537;-69
2022/05/22 05:05:59;;;;;;;15.10;13.60;;;21.70;86.70;;;;;;5055692;28;20231;-69
2022/05/22 05:08:30;;;;;;;19.13;16.23;;;21.80;86.60;;;;;;5058302;28;20709;-69
2022/05/22 05:11:12;;;;;;;21.83;15.27;;;21.90;86.50;;;;;;5065556;28;20240;-69
2022/05/22 05:13:52;;;;;;;23.67;16.03;;;22.00;86.30;;;;;;5070421;28;20304;-69
2022/05/22 05:16:21;;;;;;;19.40;16.17;;;22.20;86.00;;;;;;5052961;28;20201;-69
2022/05/22 05:19:10;;;;;;;22.70;16.57;;;22.30;85.70;;;;;;5055337;28;20206;-70
2022/05/22 05:21:41;;;;;;;24.00;17.73;;;22.50;85.10;;;;;;5062691;28;20210;-71
2022/05/22 05:24:11;;;;;;;24.87;17.13;;;22.70;84.20;;;;;;5054769;28;20261;-69
2022/05/22 05:26:38;;;;;;;21.70;17.13;;;22.80;84.20;;;;;;5058125;28;20271;-68
2022/05/22 05:29:13;;;;;;;19.33;17.43;;;22.90;83.20;;;;;;5071589;28;20635;-69
2022/05/22 05:31:41;;;;;;;23.93;17.17;;;23.00;82.80;;;;;;5086104;28;20237;-69
2022/05/22 05:34:11;;;;;;;22.07;16.53;;;23.10;82.60;;;;;;5072010;28;20292;-69
2022/05/22 05:37:07;;;;;;;22.67;17.67;;;23.30;82.20;;;;;;5065429;28;20272;-69
2022/05/22 05:40:02;;;;;;;21.90;18.80;;;23.40;81.90;;;;;;5056682;28;20318;-67
2022/05/22 05:42:37;;;;;;;22.97;18.23;;;23.50;81.80;;;;;;5063414;28;20206;-67
2022/05/22 05:45:07;;;;;;;22.93;18.00;;;23.70;81.70;;;;;;5057794;28;20220;-67
2022/05/22 05:47:50;;;;;;;27.00;19.70;;;23.70;81.60;;;;;;5066377;28;20239;-66
2022/05/22 05:50:26;;;;;;;29.03;20.10;;;23.80;81.00;;;;;;5073226;28;20249;-69
2022/05/22 05:53:04;;;;;;;24.17;18.67;;;23.90;80.90;;;;;;5085669;28;20206;-67
2022/05/22 05:55:55;;;;;;;22.13;18.10;;;24.00;80.60;;;;;;5057991;28;20218;-67
2022/05/22 05:58:59;;;;;;;21.20;17.83;;;24.10;80.20;;;;;;5058522;28;20585;-69
2022/05/22 06:01:33;;;;;;;24.47;18.57;;;24.30;79.30;;;;;;5058140;28;20222;-68
2022/05/22 06:04:03;;;;;;;19.47;17.03;;;24.30;78.50;;;;;;5066588;28;20209;-67
2022/05/22 06:06:30;;;;;;;20.80;16.67;;;24.40;78.50;;;;;;5091485;28;20283;-69
2022/05/22 06:08:59;;;;;;;21.97;17.00;;;24.50;78.50;;;;;;5096172;28;20206;-70
2022/05/22 06:11:40;;;;;;;19.30;17.10;;;24.60;78.30;;;;;;5091567;28;20214;-69
2022/05/22 06:14:21;;;;;;;19.30;17.07;;;24.70;78.10;;;;;;5078628;28;20214;-69
2022/05/22 06:16:50;;;;;;;20.33;16.90;;;24.80;78.10;;;;;;5094283;28;20583;-69
2022/05/22 06:19:54;;;;;;;30.77;17.53;;;25.00;77.60;;;;;;5071612;28;20206;-69
2022/05/22 06:22:08;;;;;;;21.77;16.43;;;25.10;77.20;;;;;;5072049;28;20305;-69
2022/05/22 06:24:37;;;;;;;19.20;17.20;;;25.20;77.10;;;;;;5089585;28;20240;-67
2022/05/22 06:27:32;;;;;;;18.77;16.77;;;25.40;76.80;;;;;;5098462;28;20672;-66
2022/05/22 06:30:04;;;;;;;21.93;16.97;;;25.60;76.40;;;;;;5058330;28;20553;-69
2022/05/22 06:32:51;;;;;;;18.53;16.53;;;25.70;75.80;;;;;;5067957;28;20309;-69
2022/05/22 06:35:42;;;;;;;22.80;16.00;;;25.80;75.70;;;;;;5071494;28;20588;-69
2022/05/22 06:41:26;;;;;;;17.93;16.10;;;26.10;74.40;;;;;;5055683;28;20202;-68
2022/05/22 06:44:12;;;;;;;18.63;16.47;;;26.20;73.20;;;;;;5062628;28;20228;-66
2022/05/22 06:47:03;;;;;;;17.53;15.80;;;26.30;72.30;;;;;;5057814;28;20218;-67
2022/05/22 06:49:48;;;;;;;19.20;16.87;;;26.30;72.20;;;;;;5065216;28;20244;-67
2022/05/22 06:52:34;;;;;;;18.03;15.97;;;26.40;72.90;;;;;;5058945;28;20213;-66
2022/05/22 06:55:21;;;;;;;16.10;14.53;;;26.50;71.90;;;;;;5102684;28;20243;-67
2022/05/22 06:58:14;;;;;;;17.80;15.47;;;26.60;71.60;;;;;;5065508;28;20456;-67
2022/05/22 07:01:00;;;;;;;15.93;14.30;;;26.70;72.10;;;;;;5071742;28;20663;-67
2022/05/22 07:03:46;;;;;;;21.33;15.43;;;26.80;71.60;;;;;;5063725;28;20550;-67
2022/05/22 07:06:45;;;;;;;20.00;14.93;;;26.90;71.10;;;;;;5059636;28;20231;-69
2022/05/22 07:09:16;;;;;;;17.93;13.47;;;27.10;71.00;;;;;;5066841;28;20203;-67
2022/05/22 07:12:11;;;;;;;16.87;14.13;;;27.30;70.70;;;;;;5104626;28;20291;-68
2022/05/22 07:14:44;;;;;;;16.63;14.80;;;27.40;69.80;;;;;;5061702;28;20227;-68
2022/05/22 07:17:12;;;;;;;17.33;15.50;;;27.60;68.60;;;;;;5059537;28;20601;-67
2022/05/22 07:20:07;;;;;;;16.37;14.67;;;27.70;68.00;;;;;;5060410;28;20225;-67
2022/05/22 07:22:39;;;;;;;16.80;13.23;;;27.80;68.30;;;;;;5060853;28;20236;-68
2022/05/22 07:25:26;;;;;;;15.63;13.80;;;28.00;68.10;;;;;;5048780;28;20220;-67
2022/05/22 07:28:07;;;;;;;14.73;12.90;;;28.20;67.70;;;;;;5044604;28;20221;-67
2022/05/22 07:30:53;;;;;;;18.63;13.97;;;28.40;66.90;;;;;;5049201;28;20237;-67
2022/05/22 07:33:38;;;;;;;16.53;13.37;;;28.50;66.40;;;;;;5040069;28;20236;-67
2022/05/22 07:36:16;;;;;;;16.70;13.07;;;28.60;65.90;;;;;;5049595;28;20205;-67
2022/05/22 07:39:04;;;;;;;14.90;11.83;;;28.70;66.00;;;;;;5033384;28;20280;-67
2022/05/22 07:41:58;;;;;;;18.83;14.27;;;28.70;65.70;;;;;;5032088;28;20228;-67
2022/05/22 07:44:43;;;;;;;20.57;13.70;;;28.80;65.20;;;;;;5047144;28;20222;-67
2022/05/22 07:47:24;;;;;;;16.40;12.83;;;29.00;64.60;;;;;;5050684;28;20225;-67
2022/05/22 07:50:20;;;;;;;15.47;12.57;;;29.10;64.40;;;;;;5044928;28;20210;-67
2022/05/22 07:52:49;;;;;;;15.13;13.37;;;29.20;64.20;;;;;;5051109;28;20214;-67
2022/05/22 07:55:55;;;;;;;15.47;13.80;;;29.40;63.40;;;;;;4974545;28;20216;-67
2022/05/22 07:58:27;;;;;;;17.97;12.33;;;29.50;63.50;;;;;;4977222;28;20223;-68
2022/05/22 08:00:58;;;;;;;16.57;13.20;;;29.60;63.70;;;;;;5011008;28;20242;-68
2022/05/22 08:03:48;;;;;;;15.93;12.50;;;29.70;63.40;;;;;;5023366;28;20229;-67
2022/05/22 08:06:34;;;;;;;15.10;10.50;;;29.90;62.70;;;;;;5052570;28;20221;-68
2022/05/22 08:09:13;;;;;;;22.43;12.80;;;30.10;62.20;;;;;;5048768;28;20203;-67
2022/05/22 08:11:46;;;;;;;11.07;10.00;;;30.20;60.90;;;;;;5050233;28;20691;-68
2022/05/22 08:14:15;;;;;;;14.63;11.20;;;30.30;60.80;;;;;;5042898;28;20204;-68
2022/05/22 08:16:43;;;;;;;13.50;10.97;;;30.40;60.90;;;;;;5051569;28;20213;-68
2022/05/22 08:19:18;;;;;;;14.20;11.13;;;30.40;60.50;;;;;;5043619;28;20652;-68
2022/05/22 08:22:04;;;;;;;19.17;15.50;;;30.50;60.50;;;;;;5053425;28;20666;-68
2022/05/22 08:24:50;;;;;;;16.63;12.03;;;30.60;60.00;;;;;;5080906;28;20378;-68
2022/05/22 08:27:20;;;;;;;14.63;10.23;;;30.60;60.30;;;;;;5108896;28;20212;-68
2022/05/22 08:29:47;;;;;;;46.50;27.57;;;30.60;59.70;;;;;;5104169;28;20562;-68
2022/05/22 08:32:22;;;;;;;23.47;16.90;;;30.60;60.30;;;;;;5076760;28;20220;-68
2022/05/22 08:34:52;;;;;;;17.53;10.93;;;30.70;60.30;;;;;;5088226;28;20596;-68
2022/05/22 08:37:20;;;;;;;12.03;9.77;;;30.70;59.90;;;;;;5082524;28;20204;-68
2022/05/22 08:39:47;;;;;;;27.33;18.57;;;30.80;59.20;;;;;;5104640;28;20229;-68
2022/05/22 08:42:30;;;;;;;11.30;9.07;;;30.70;58.50;;;;;;5086761;28;20653;-68
2022/05/22 08:44:57;;;;;;;18.47;10.33;;;30.70;59.30;;;;;;5086051;28;20546;-68
2022/05/22 08:47:37;;;;;;;36.40;19.30;;;30.70;59.80;;;;;;5088227;28;20216;-68
2022/05/22 08:50:08;;;;;;;8.30;7.50;;;30.60;58.70;;;;;;5082056;28;20200;-68
2022/05/22 08:52:51;;;;;;;12.00;7.70;;;30.50;58.30;;;;;;5091120;28;20221;-68
2022/05/22 08:55:20;;;;;;;10.90;7.67;;;30.50;57.90;;;;;;5102685;28;20197;-69
2022/05/22 09:00:56;;;;;;;14.77;7.67;;;30.20;58.60;;;;;;5083295;28;20198;-69
2022/05/22 09:03:30;;;;;;;8.80;6.73;;;30.00;58.50;;;;;;5061864;28;20214;-70
2022/05/22 09:06:03;;;;;;;6.73;6.00;;;30.00;59.10;;;;;;5087291;28;20196;-69
2022/05/22 09:08:47;;;;;;;8.90;7.17;;;30.00;59.40;;;;;;5079560;28;20205;-70
2022/05/22 09:11:33;;;;;;;9.57;6.43;;;30.10;59.10;;;;;;5086729;28;20352;-70
2022/05/22 09:14:09;;;;;;;8.80;7.13;;;30.20;58.40;;;;;;5095207;28;20267;-70
2022/05/22 09:17:03;;;;;;;8.63;6.87;;;30.20;58.20;;;;;;5087240;28;20695;-70
2022/05/22 09:19:56;;;;;;;13.13;6.87;;;30.30;59.10;;;;;;5067993;28;20209;-70
2022/05/22 09:22:40;;;;;;;11.57;7.30;;;30.40;59.30;;;;;;5083908;28;20205;-70
2022/05/22 09:25:26;;;;;;;9.83;7.80;;;30.50;59.40;;;;;;5101862;28;20237;-70
2022/05/22 09:28:01;;;;;;;9.47;5.97;;;30.60;58.40;;;;;;5082185;28;20238;-70
2022/05/22 09:31:12;;;;;;;8.47;6.83;;;30.80;58.10;;;;;;5084303;28;20607;-70
2022/05/22 09:34:04;;;;;;;11.07;6.73;;;30.90;55.70;;;;;;5096507;28;20205;-71
2022/05/22 09:37:07;;;;;;;12.57;6.70;;;31.00;57.10;;;;;;5078557;28;20198;-70
2022/05/22 09:39:40;;;;;;;9.90;6.97;;;31.10;55.90;;;;;;5093603;28;20213;-70
2022/05/22 09:42:41;;;;;;;9.83;7.47;;;31.30;56.60;;;;;;5087117;28;20220;-70
2022/05/22 09:45:28;;;;;;;7.20;6.50;;;31.50;55.90;;;;;;5094212;28;20201;-70
2022/05/22 09:48:17;;;;;;;8.07;7.00;;;31.60;54.90;;;;;;5095274;28;20212;-69
2022/05/22 09:50:45;;;;;;;9.43;6.37;;;31.70;54.20;;;;;;5088331;28;20201;-69
2022/05/22 09:53:38;;;;;;;10.23;6.50;;;31.80;54.80;;;;;;5081528;28;20225;-68
2022/05/22 09:56:36;;;;;;;13.67;7.37;;;31.90;54.80;;;;;;5107938;28;20193;-68
2022/05/22 09:59:30;;;;;;;7.30;5.97;;;32.00;54.10;;;;;;5072539;28;20223;-69
2022/05/22 10:02:02;;;;;;;11.53;6.10;;;32.10;53.60;;;;;;5069789;28;20714;-70
2022/05/22 10:05:14;;;;;;;6.70;6.00;;;32.20;54.50;;;;;;5111298;28;20217;-68
2022/05/22 10:08:08;;;;;;;10.80;6.67;;;32.30;55.20;;;;;;5062943;28;20228;-68
2022/05/22 10:10:40;;;;;;;8.90;6.27;;;32.60;56.10;;;;;;5081294;28;20252;-70
2022/05/22 10:13:13;;;;;;;11.57;5.67;;;32.80;54.60;;;;;;5089687;28;20229;-68
2022/05/22 10:16:07;;;;;;;11.17;5.73;;;32.90;54.20;;;;;;5110610;28;20215;-70
2022/05/22 10:18:53;;;;;;;10.63;5.40;;;33.00;53.90;;;;;;5082363;28;20220;-69
2022/05/22 10:21:24;;;;;;;8.97;5.63;;;33.10;53.70;;;;;;5091007;28;20201;-68
2022/05/22 10:23:54;;;;;;;38.20;7.63;;;33.10;53.30;;;;;;5078965;28;20625;-69
2022/05/22 10:26:45;;;;;;;14.23;5.80;;;33.20;53.50;;;;;;5085503;28;20300;-68
2022/05/22 10:29:29;;;;;;;8.50;4.90;;;33.20;53.20;;;;;;5089998;28;20196;-68
2022/05/22 10:32:05;;;;;;;8.70;5.20;;;33.20;52.90;;;;;;5084427;28;20239;-68
2022/05/22 10:34:44;;;;;;;8.43;5.43;;;33.10;51.20;;;;;;5081473;28;20283;-68
2022/05/22 10:37:49;;;;;;;8.43;5.37;;;33.10;52.00;;;;;;5090207;28;20627;-68
2022/05/22 10:40:19;;;;;;;6.67;5.20;;;33.00;52.10;;;;;;5047742;28;20210;-68
2022/05/22 10:42:54;;;;;;;10.30;5.23;;;33.10;52.30;;;;;;5072149;28;20672;-69
2022/05/22 10:45:35;;;;;;;10.93;5.30;;;33.10;51.90;;;;;;5079325;28;20314;-69
2022/05/22 10:48:17;;;;;;;9.43;5.10;;;33.10;50.00;;;;;;5089676;28;20216;-69
2022/05/22 10:50:55;;;;;;;11.27;5.93;;;33.00;49.70;;;;;;5073999;28;20411;-68
2022/05/22 10:53:32;;;;;;;7.27;4.70;;;32.90;51.80;;;;;;5091292;28;20216;-68
2022/05/22 10:56:02;;;;;;;9.60;5.73;;;32.90;52.30;;;;;;5077863;28;20242;-68
2022/05/22 10:58:33;;;;;;;11.97;5.70;;;33.00;51.70;;;;;;5100037;28;20665;-69
2022/05/22 11:01:05;;;;;;;9.47;5.20;;;33.00;50.00;;;;;;5086357;28;20205;-68
2022/05/22 11:03:35;;;;;;;6.43;4.77;;;33.00;50.00;;;;;;5083816;28;20196;-68
2022/05/22 11:06:16;;;;;;;7.37;5.33;;;33.10;49.60;;;;;;5060738;28;20210;-68
2022/05/22 11:08:53;;;;;;;11.23;5.47;;;33.00;50.20;;;;;;5087773;28;20213;-69
2022/05/22 11:11:28;;;;;;;8.60;5.47;;;33.00;50.70;;;;;;5091545;28;20216;-69
2022/05/22 11:14:15;;;;;;;9.57;5.50;;;33.00;50.60;;;;;;5101918;28;20656;-69
2022/05/22 11:16:42;;;;;;;9.17;4.77;;;33.00;50.80;;;;;;5108313;28;20653;-69
2022/05/22 11:19:20;;;;;;;8.20;4.70;;;33.00;49.80;;;;;;5088409;28;20204;-68
2022/05/22 11:22:06;;;;;;;10.33;4.80;;;32.90;49.40;;;;;;5080395;28;20201;-68
2022/05/22 11:24:54;;;;;;;8.17;5.17;;;32.90;50.30;;;;;;5081230;28;20766;-68
2022/05/22 11:28:10;;;;;;;7.40;5.33;;;33.00;51.20;;;;;;5087735;28;20201;-68
2022/05/22 11:30:56;;;;;;;11.00;5.10;;;33.10;49.00;;;;;;5055429;28;20224;-68
2022/05/22 11:33:48;;;;;;;6.90;5.20;;;33.10;48.70;;;;;;5085793;28;20327;-69
2022/05/22 11:36:18;;;;;;;6.13;5.27;;;33.10;48.40;;;;;;5077098;28;20206;-69
2022/05/22 11:38:51;;;;;;;8.77;4.93;;;33.00;48.60;;;;;;5085870;28;20594;-69
2022/05/22 11:41:37;;;;;;;9.20;5.20;;;33.00;50.10;;;;;;5091352;28;20212;-68
2022/05/22 11:44:43;;;;;;;7.77;5.10;;;33.00;49.70;;;;;;5085122;28;20216;-69
2022/05/22 11:47:13;;;;;;;6.40;5.40;;;33.10;49.70;;;;;;5080872;28;20213;-69
2022/05/22 11:49:52;;;;;;;8.20;5.23;;;33.20;49.00;;;;;;5081320;28;20197;-68
2022/05/22 11:55:21;;;;;;;9.33;5.70;;;33.00;49.10;;;;;;5074973;28;20213;-69
2022/05/22 11:58:05;;;;;;;16.00;5.70;;;32.90;49.30;;;;;;5074526;28;20210;-68
2022/05/22 12:00:47;;;;;;;13.20;5.40;;;32.80;50.00;;;;;;5070352;28;20561;-69
2022/05/22 12:03:26;;;;;;;9.93;4.93;;;32.90;50.10;;;;;;5082427;28;20291;-69
2022/05/22 12:06:20;;;;;;;8.87;4.67;;;33.00;50.10;;;;;;5079856;28;20224;-68
2022/05/22 12:09:09;;;;;;;7.13;5.10;;;33.20;50.60;;;;;;5086012;28;20352;-70
2022/05/22 12:12:33;;;;;;;14.80;5.30;;;33.40;50.60;;;;;;5089746;28;20498;-69
2022/05/22 12:15:33;;;;;;;7.63;5.20;;;33.60;49.20;;;;;;5039638;28;20241;-69
2022/05/22 12:18:21;;;;;;;6.53;5.00;;;33.70;49.80;;;;;;5046808;28;20206;-69
2022/05/22 12:21:02;;;;;;;7.97;6.23;;;33.80;50.70;;;;;;5088909;28;20209;-70
2022/05/22 12:23:57;;;;;;;6.30;5.03;;;34.00;51.00;;;;;;5056849;28;20731;-69
2022/05/22 12:26:26;;;;;;;7.27;6.17;;;34.20;51.60;;;;;;5090776;28;20233;-69
2022/05/22 12:29:20;;;;;;;7.87;5.67;;;34.40;49.10;;;;;;5068514;28;20220;-69
2022/05/22 12:31:53;;;;;;;8.40;5.60;;;34.40;49.90;;;;;;5096765;28;20265;-70
2022/05/22 12:34:43;;;;;;;6.50;5.37;;;34.30;50.20;;;;;;5085401;28;20206;-70
2022/05/22 12:37:23;;;;;;;12.17;5.53;;;34.20;50.90;;;;;;5072142;28;20544;-71
2022/05/22 12:40:00;;;;;;;8.60;5.63;;;34.10;51.60;;;;;;5086265;28;20193;-69
2022/05/22 12:42:32;;;;;;;7.17;5.90;;;33.90;52.20;;;;;;5087268;28;20200;-70
2022/05/22 12:45:01;;;;;;;10.17;5.90;;;33.80;52.10;;;;;;5085985;28;20643;-70
2022/05/22 12:47:45;;;;;;;8.10;5.80;;;33.60;51.80;;;;;;5074888;28;20225;-70
2022/05/22 12:50:35;;;;;;;9.10;5.50;;;33.50;51.80;;;;;;5103010;28;20205;-70
2022/05/22 12:53:02;;;;;;;9.17;5.33;;;33.40;52.80;;;;;;5073747;28;20235;-69
2022/05/22 12:55:36;;;;;;;12.67;5.50;;;33.40;52.80;;;;;;5086796;28;20872;-68
2022/05/22 12:58:06;;;;;;;8.10;6.10;;;33.50;53.00;;;;;;5072936;28;20269;-69
2022/05/22 13:00:39;;;;;;;7.17;5.73;;;33.50;52.00;;;;;;5107966;28;20197;-69
2022/05/22 13:03:26;;;;;;;12.10;6.20;;;33.60;51.40;;;;;;5077709;28;20588;-69
2022/05/22 13:06:16;;;;;;;9.53;5.73;;;33.60;50.80;;;;;;5086010;28;20201;-68
2022/05/22 13:09:03;;;;;;;8.30;5.80;;;33.60;50.00;;;;;;5090305;28;20705;-70
2022/05/22 13:11:42;;;;;;;7.00;5.20;;;33.60;50.40;;;;;;5097443;28;20225;-70
2022/05/22 13:14:37;;;;;;;8.83;5.30;;;33.50;50.30;;;;;;5081976;28;20209;-71
2022/05/22 13:17:06;;;;;;;6.73;5.97;;;33.50;51.70;;;;;;5081345;28;20220;-71
2022/05/22 13:19:49;;;;;;;6.47;5.80;;;33.50;51.40;;;;;;5081972;28;20205;-70
2022/05/22 13:22:45;;;;;;;8.73;5.67;;;33.60;50.20;;;;;;5076630;28;20229;-69
2022/05/22 13:25:42;;;;;;;13.30;6.37;;;33.60;51.20;;;;;;5064564;28;20738;-70
2022/05/22 13:28:21;;;;;;;5.77;5.23;;;33.70;51.90;;;;;;5069222;28;20217;-68
2022/05/22 13:30:52;;;;;;;10.60;5.63;;;33.70;51.80;;;;;;5074191;28;20209;-69
2022/05/22 13:33:21;;;;;;;12.30;6.43;;;33.70;51.00;;;;;;5074013;28;20229;-69
2022/05/22 13:35:54;;;;;;;9.47;6.30;;;33.60;50.40;;;;;;5063987;28;20205;-69
2022/05/22 13:38:22;;;;;;;9.03;5.87;;;33.60;50.00;;;;;;5086621;28;20551;-70